createdAt,value
2022-11-25T00:02:12.921Z,12.27
2022-11-25T00:07:15.565Z,11.03
2022-11-25T00:12:18.159Z,11.17
2022-11-25T00:17:20.707Z,12.67
2022-11-25T00:22:23.213Z,12.87
2022-11-25T00:27:25.717Z,11.73
2022-11-25T00:32:28.258Z,10.87
2022-11-25T00:37:32.434Z,11.63
2022-11-25T00:42:53.783Z,12.20
2022-11-25T00:47:56.395Z,10.48
2022-11-25T00:52:59.395Z,10.43
2022-11-25T00:58:02.111Z,10.43
2022-11-25T01:03:05.199Z,9.37
2022-11-25T01:08:08.344Z,9.93
2022-11-25T01:13:13.830Z,12.03
2022-11-25T01:18:16.335Z,10.97
2022-11-25T01:23:18.890Z,9.20
2022-11-25T01:28:21.573Z,8.97
2022-11-25T01:33:25.493Z,9.60
2022-11-25T01:38:28.174Z,11.33
2022-11-25T01:43:31.387Z,13.60
2022-11-25T01:48:57.356Z,13.73
2022-11-25T01:54:03.138Z,13.43
2022-11-25T01:59:07.456Z,12.73
2022-11-25T02:04:15.673Z,13.43
2022-11-25T02:09:21.548Z,11.77
2022-11-25T02:14:26.408Z,15.30
2022-11-25T02:19:40.956Z,11.40
2022-11-25T02:24:46.491Z,12.33
2022-11-25T02:29:51.594Z,9.47
2022-11-25T02:34:55.103Z,12.30
2022-11-25T02:39:58.546Z,9.77
2022-11-25T02:45:01.480Z,11.30
2022-11-25T02:50:05.130Z,9.97
2022-11-25T02:55:08.143Z,10.93
2022-11-25T03:00:12.265Z,12.40
2022-11-25T03:05:16.288Z,11.47
2022-11-25T03:10:19.193Z,9.47
2022-11-25T03:15:22.646Z,13.03
2022-11-25T03:20:25.720Z,13.47
2022-11-25T03:25:28.333Z,13.60
2022-11-25T03:30:31.665Z,12.80
2022-11-25T03:35:37.044Z,13.23
2022-11-25T03:40:40.170Z,16.27
2022-11-25T03:45:43.014Z,14.47
2022-11-25T03:50:49.068Z,12.93
2022-11-25T03:55:51.646Z,13.77
2022-11-25T04:01:03.578Z,12.23
2022-11-25T04:06:07.723Z,11.27
2022-11-25T04:11:10.909Z,10.03
2022-11-25T04:16:26.195Z,11.40
2022-11-25T04:21:30.027Z,13.80
2022-11-25T04:26:32.965Z,14.93
2022-11-25T04:31:35.592Z,12.30
2022-11-25T04:36:38.133Z,10.50
2022-11-25T04:41:40.793Z,13.77
2022-11-25T04:46:44.347Z,14.73
2022-11-25T04:51:47.071Z,11.57
2022-11-25T04:56:50.839Z,13.87
2022-11-25T05:01:54.593Z,14.63
2022-11-25T05:07:09.061Z,14.70
2022-11-25T05:12:19.336Z,11.97
2022-11-25T05:17:30.106Z,13.27
2022-11-25T05:22:35.346Z,13.83
2022-11-25T05:27:39.714Z,14.57
2022-11-25T05:32:45.471Z,12.93
2022-11-25T05:37:48.708Z,17.67
2022-11-25T05:42:51.488Z,15.63
2022-11-25T05:47:55.718Z,16.93
2022-11-25T05:53:01.447Z,14.90
2022-11-25T05:58:06.303Z,17.23
2022-11-25T06:03:09.994Z,16.77
2022-11-25T06:08:14.024Z,18.30
2022-11-25T06:13:16.727Z,19.53
2022-11-25T06:18:20.794Z,19.03
2022-11-25T06:23:26.046Z,21.20
2022-11-25T06:28:28.718Z,20.03
2022-11-25T06:33:32.981Z,20.40
2022-11-25T06:38:38.255Z,20.30
2022-11-25T06:43:41.201Z,22.80
2022-11-25T06:48:43.770Z,20.57
2022-11-25T06:53:46.474Z,24.43
2022-11-25T06:58:50.430Z,17.67
2022-11-25T07:03:56.817Z,22.10
2022-11-25T07:08:59.745Z,24.40
2022-11-25T07:14:06.391Z,25.07
2022-11-25T07:19:11.486Z,19.73
2022-11-25T07:24:16.675Z,20.33
2022-11-25T07:29:51.582Z,21.40
2022-11-25T07:34:43.575Z,18.83
2022-11-25T07:39:46.138Z,19.37
2022-11-25T07:44:49.437Z,21.73
2022-11-25T07:50:21.625Z,17.40
2022-11-25T07:55:26.198Z,20.43
2022-11-25T08:00:28.851Z,20.90
2022-11-25T08:05:33.423Z,20.03
2022-11-25T08:10:41.152Z,19.03
2022-11-25T08:15:43.819Z,22.57
2022-11-25T08:20:46.456Z,21.60
2022-11-25T08:25:50.648Z,21.27
2022-11-25T08:31:01.903Z,25.60
2022-11-25T08:36:06.175Z,22.58
2022-11-25T08:41:16.487Z,25.23
2022-11-25T08:46:22.598Z,18.37
2022-11-25T08:51:30.345Z,22.53
2022-11-25T08:56:39.472Z,22.27
2022-11-25T09:01:42.121Z,24.93
2022-11-25T09:06:44.851Z,22.83
2022-11-25T09:11:47.491Z,27.20
2022-11-25T09:16:50.132Z,21.87
2022-11-25T09:21:52.793Z,20.17
2022-11-25T09:26:55.374Z,18.43
2022-11-25T09:31:58.929Z,20.03
2022-11-25T09:37:01.462Z,21.03
2022-11-25T09:42:22.598Z,19.73
2022-11-25T09:47:47.612Z,18.38
2022-11-25T09:53:05.907Z,21.07
2022-11-25T09:58:37.287Z,18.93
2022-11-25T10:03:52.772Z,19.83
2022-11-25T10:09:02.358Z,19.73
2022-11-25T10:14:17.615Z,21.60
2022-11-25T10:19:32.208Z,21.40
2022-11-25T10:24:39.878Z,19.30
2022-11-25T10:29:48.982Z,18.83
2022-11-25T10:35:00.976Z,19.63
2022-11-25T10:40:07.303Z,19.17
2022-11-25T10:45:16.510Z,19.07
2022-11-25T10:50:25.200Z,21.03
2022-11-25T10:56:01.805Z,16.40
2022-11-25T11:01:25.737Z,19.00
2022-11-25T11:06:32.124Z,16.23
2022-11-25T11:11:49.880Z,17.70
2022-11-25T11:18:09.067Z,18.10
2022-11-25T11:23:14.361Z,19.97
2022-11-25T11:28:46.308Z,19.50
2022-11-25T11:39:07.499Z,17.40
2022-11-25T11:44:32.255Z,18.70
2022-11-25T11:49:57.157Z,22.80
2022-11-25T11:56:11.868Z,17.77
2022-11-25T12:01:45.958Z,18.33
2022-11-25T12:07:03.404Z,17.93
2022-11-25T12:12:14.744Z,17.67
2022-11-25T12:17:42.487Z,16.80
2022-11-25T12:22:49.784Z,19.83
2022-11-25T12:28:03.816Z,20.67
2022-11-25T12:33:22.199Z,18.37
2022-11-25T12:39:02.037Z,16.77
2022-11-25T12:44:20.145Z,18.43
2022-11-25T12:49:28.075Z,21.27
2022-11-25T12:54:52.464Z,16.40
2022-11-25T13:05:54.031Z,17.77
2022-11-25T13:11:28.854Z,19.10
2022-11-25T13:16:32.622Z,20.23
2022-11-25T13:21:35.685Z,18.90
2022-11-25T13:26:49.548Z,16.83
2022-11-25T13:31:59.487Z,18.60
2022-11-25T13:37:23.460Z,17.47
2022-11-25T13:42:26.723Z,17.63
2022-11-25T13:47:32.008Z,16.00
2022-11-25T13:52:42.381Z,19.00
2022-11-25T13:58:10.521Z,15.97
2022-11-25T14:03:20.989Z,16.57
2022-11-25T14:08:34.266Z,18.23
2022-11-25T14:14:02.525Z,17.63
2022-11-25T14:25:23.917Z,18.92
2022-11-25T14:30:27.215Z,15.17
2022-11-25T14:35:38.953Z,13.47
2022-11-25T14:40:58.930Z,16.57
2022-11-25T14:46:21.494Z,16.03
2022-11-25T14:51:27.364Z,13.87
2022-11-25T14:56:33.912Z,11.93
2022-11-25T15:01:38.846Z,12.47
2022-11-25T15:06:48.479Z,13.07
2022-11-25T15:11:57.658Z,12.70
2022-11-25T15:17:01.391Z,15.47
2022-11-25T15:22:23.623Z,12.80
2022-11-25T15:27:29.014Z,13.87
2022-11-25T15:32:37.543Z,17.00
2022-11-25T15:37:40.084Z,16.17
2022-11-25T15:42:42.676Z,17.33
2022-11-25T15:47:45.590Z,14.80
2022-11-25T15:52:56.098Z,12.17
2022-11-25T15:58:20.275Z,16.20
2022-11-25T16:03:23.881Z,14.23
2022-11-25T16:08:32.635Z,14.87
2022-11-25T16:13:37.462Z,11.23
2022-11-25T16:18:58.018Z,13.13
2022-11-25T16:24:24.596Z,13.20
2022-11-25T16:29:31.917Z,15.20
2022-11-25T16:34:34.642Z,15.50
2022-11-25T16:39:38.854Z,14.93
2022-11-25T16:44:45.568Z,17.93
2022-11-25T16:49:48.428Z,16.90
2022-11-25T16:54:51.584Z,16.23
2022-11-25T16:59:58.927Z,17.63
2022-11-25T17:05:17.714Z,16.13
2022-11-25T17:10:21.341Z,15.43
2022-11-25T17:15:32.677Z,18.43
2022-11-25T17:20:35.411Z,15.40
2022-11-25T17:25:38.016Z,18.97
2022-11-25T17:30:40.823Z,15.13
2022-11-25T17:35:43.877Z,13.50
2022-11-25T17:40:47.563Z,14.07
2022-11-25T17:45:50.186Z,15.70
2022-11-25T17:50:52.773Z,16.57
2022-11-25T17:55:56.257Z,17.37
2022-11-25T18:00:58.922Z,16.27
2022-11-25T18:06:03.117Z,16.20
2022-11-25T18:11:07.152Z,16.33
2022-11-25T18:16:10.853Z,14.50
2022-11-25T18:21:13.444Z,14.90
2022-11-25T18:26:16.086Z,13.63
2022-11-25T18:31:18.859Z,11.87
2022-11-25T18:36:21.634Z,15.03
2022-11-25T18:41:24.315Z,15.00
2022-11-25T18:46:27.243Z,14.33
2022-11-25T18:51:29.915Z,15.03
2022-11-25T18:56:33.755Z,14.97
2022-11-25T19:01:36.339Z,13.70
2022-11-25T19:06:41.596Z,13.43
2022-11-25T19:11:50.190Z,12.20
2022-11-25T19:16:52.944Z,20.93
2022-11-25T19:21:55.607Z,13.87
2022-11-25T19:26:58.211Z,17.97
2022-11-25T19:32:02.655Z,15.63
2022-11-25T19:37:05.626Z,15.20
2022-11-25T19:42:09.911Z,13.00
2022-11-25T19:47:21.035Z,14.00
2022-11-25T19:52:30.745Z,12.70
2022-11-25T19:57:33.350Z,16.10
2022-11-25T20:02:36.495Z,15.77
2022-11-25T20:07:39.327Z,17.60
2022-11-25T20:12:42.519Z,14.63
2022-11-25T20:17:52.305Z,13.53
2022-11-25T20:23:17.804Z,14.77
2022-11-25T20:28:23.148Z,15.17
2022-11-25T20:33:28.779Z,16.40
2022-11-25T20:38:33.706Z,16.63
2022-11-25T20:43:43.387Z,16.40
2022-11-25T20:48:46.096Z,14.70
2022-11-25T20:53:57.283Z,15.90
2022-11-25T20:58:59.903Z,18.27
2022-11-25T21:04:02.576Z,16.57
2022-11-25T21:09:07.128Z,23.50
2022-11-25T21:14:15.681Z,18.73
2022-11-25T21:19:18.665Z,17.40
2022-11-25T21:24:34.253Z,17.83
2022-11-25T21:29:36.948Z,17.43
2022-11-25T21:34:40.041Z,18.70
2022-11-25T21:39:42.979Z,17.43
2022-11-25T21:44:46.478Z,21.27
2022-11-25T21:49:50.074Z,21.90
2022-11-25T21:54:52.876Z,18.20
2022-11-25T21:59:56.033Z,19.50
2022-11-25T22:04:59.043Z,16.93
2022-11-25T22:10:01.560Z,18.13
2022-11-25T22:15:12.960Z,21.43
2022-11-25T22:20:25.446Z,17.13
2022-11-25T22:25:31.414Z,16.87
2022-11-25T22:30:34.395Z,23.60
2022-11-25T22:35:36.931Z,22.53
2022-11-25T22:40:41.025Z,17.03
2022-11-25T22:45:44.382Z,21.03
2022-11-25T22:50:47.003Z,20.67
2022-11-25T22:55:50.498Z,20.37
2022-11-25T23:00:53.241Z,23.57
2022-11-25T23:05:57.113Z,21.80
2022-11-25T23:10:59.835Z,22.10
2022-11-25T23:16:04.758Z,20.77
2022-11-25T23:21:16.644Z,22.27
2022-11-25T23:26:19.180Z,17.23
2022-11-25T23:31:21.756Z,23.00
2022-11-25T23:36:45.619Z,23.63
2022-11-25T23:41:49.000Z,19.77
2022-11-25T23:46:53.987Z,18.47
2022-11-25T23:52:03.337Z,21.10
2022-11-25T23:57:17.193Z,15.07
